Time;durP1;ratioP1;P1;durP2;ratioP2;P2;SDS_P1;SDS_P2;PMS_P1;PMS_P2;Temp;Humidity;BMP_temperature;BMP_pressure;BME280_temperature;BME280_humidity;BME280_pressure;Samples;Min_cycle;Max_cycle;Signal;HPM_P1;HPM_P2
2021/05/11 00:00:51;;;;;;;76.55;22.25;;;;;;;;;;4909601;29;20551;-56
2021/05/11 00:03:17;;;;;;;166.63;28.30;;;;;;;;;;4904266;29;20155;-55
2021/05/11 00:05:43;;;;;;;233.88;30.40;;;;;;;;;;4906077;29;20052;-55
2021/05/11 00:08:10;;;;;;;66.00;15.88;;;;;;;;;;4904009;29;20492;-56
2021/05/11 00:10:36;;;;;;;175.93;29.02;;;;;;;;;;4904781;29;20051;-55
2021/05/11 00:13:02;;;;;;;111.88;22.13;;;;;;;;;;4906661;29;20048;-54
2021/05/11 00:15:29;;;;;;;174.23;27.35;;;;;;;;;;4912176;29;20083;-55
2021/05/11 00:17:55;;;;;;;223.80;28.95;;;;;;;;;;4907366;29;20048;-57
2021/05/11 00:20:21;;;;;;;133.80;27.98;;;;;;;;;;4905737;29;20044;-56
2021/05/11 00:22:48;;;;;;;153.95;30.20;;;;;;;;;;4909973;29;20123;-57
2021/05/11 00:25:14;;;;;;;169.50;33.05;;;;;;;;;;4905514;29;20045;-55
2021/05/11 00:27:41;;;;;;;84.25;25.25;;;;;;;;;;4904767;29;20036;-57
2021/05/11 00:30:09;;;;;;;195.13;34.85;;;;;;;;;;4904650;29;20135;-56
2021/05/11 00:32:35;;;;;;;90.63;28.35;;;;;;;;;;4900476;29;20055;-57
2021/05/11 00:35:01;;;;;;;95.50;30.52;;;;;;;;;;4905009;29;20048;-55
2021/05/11 00:37:27;;;;;;;98.45;29.63;;;;;;;;;;4906550;29;20044;-56
2021/05/11 00:39:53;;;;;;;105.97;30.60;;;;;;;;;;4903649;29;20051;-56
2021/05/11 00:42:20;;;;;;;101.22;30.05;;;;;;;;;;4913027;29;20044;-55
2021/05/11 00:44:47;;;;;;;71.05;25.17;;;;;;;;;;4903647;29;20048;-56
2021/05/11 00:47:13;;;;;;;100.75;30.75;;;;;;;;;;4889086;29;20043;-56
2021/05/11 00:49:39;;;;;;;82.13;27.92;;;;;;;;;;4902744;29;20046;-55
2021/05/11 00:52:07;;;;;;;95.43;30.05;;;;;;;;;;4898749;29;20040;-57
2021/05/11 00:54:34;;;;;;;57.00;23.70;;;;;;;;;;4907144;29;20051;-57
2021/05/11 00:57:01;;;;;;;77.70;28.55;;;;;;;;;;4907856;29;20119;-55
2021/05/11 00:59:29;;;;;;;80.10;28.50;;;;;;;;;;4910489;29;20077;-57
2021/05/11 01:01:56;;;;;;;120.28;32.55;;;;;;;;;;4901628;29;20512;-56
2021/05/11 01:04:23;;;;;;;178.43;34.72;;;;;;;;;;4908024;29;20054;-57
2021/05/11 01:06:49;;;;;;;60.05;23.63;;;;;;;;;;4908778;29;20408;-56
2021/05/11 01:09:17;;;;;;;89.80;29.33;;;;;;;;;;4908245;29;20143;-55
2021/05/11 01:11:45;;;;;;;102.93;30.38;;;;;;;;;;4906117;29;20523;-54
2021/05/11 01:14:11;;;;;;;91.22;31.23;;;;;;;;;;4892025;29;20592;-56
2021/05/11 01:16:39;;;;;;;79.20;29.52;;;;;;;;;;4908907;29;20043;-57
2021/05/11 01:19:15;;;;;;;;;;;;;;;;;;4908457;29;20516;-55
2021/05/11 01:22:01;;;;;;;77.32;28.08;;;;;;;;;;4906005;29;19979;-56
2021/05/11 01:24:31;;;;;;;72.32;27.88;;;;;;;;;;4904513;29;20049;-56
2021/05/11 01:43:55;;;;;;;99.55;30.30;;;;;;;;;;4907464;29;20108;-57
2021/05/11 02:23:57;;;;;;;120.35;33.38;;;;;;;;;;4901718;29;20063;-56
2021/05/11 02:26:24;;;;;;;125.03;35.10;;;;;;;;;;4912065;29;20059;-55
2021/05/11 02:28:50;;;;;;;136.48;34.40;;;;;;;;;;4906302;29;20123;-56
2021/05/11 02:31:16;;;;;;;130.52;31.20;;;;;;;;;;4909883;29;20083;-53
2021/05/11 02:33:44;;;;;;;160.80;34.75;;;;;;;;;;4909047;29;20458;-56
2021/05/11 02:36:10;;;;;;;149.98;36.28;;;;;;;;;;4908906;29;20048;-55
2021/05/11 02:38:36;;;;;;;125.88;35.35;;;;;;;;;;4905834;29;20036;-56
2021/05/11 02:41:03;;;;;;;124.57;34.72;;;;;;;;;;4905439;29;20054;-56
2021/05/11 02:43:34;;;;;;;129.45;35.83;;;;;;;;;;4909577;29;20044;-56
2021/05/11 02:46:00;;;;;;;140.77;36.38;;;;;;;;;;4913484;29;20528;-57
2021/05/11 02:48:27;;;;;;;134.25;37.25;;;;;;;;;;4906616;29;20047;-57
2021/05/11 02:50:53;;;;;;;133.50;36.13;;;;;;;;;;4910085;29;20252;-56
2021/05/11 02:53:19;;;;;;;122.35;32.53;;;;;;;;;;4909499;29;20055;-56
2021/05/11 02:55:46;;;;;;;;;;;;;;;;;;4911489;29;20048;-54
2021/05/11 02:58:13;;;;;;;153.70;34.78;;;;;;;;;;4904204;29;19930;-55
2021/05/11 03:00:39;;;;;;;114.40;33.10;;;;;;;;;;4904525;29;20051;-55
2021/05/11 03:03:05;;;;;;;141.05;37.00;;;;;;;;;;4893611;29;20496;-56
2021/05/11 03:05:32;;;;;;;140.18;37.13;;;;;;;;;;4909004;29;20044;-56
2021/05/11 03:07:58;;;;;;;140.23;37.80;;;;;;;;;;4912577;29;20035;-55
2021/05/11 03:10:24;;;;;;;172.40;37.90;;;;;;;;;;4907288;29;20124;-56
2021/05/11 03:12:50;;;;;;;164.65;35.70;;;;;;;;;;4891054;29;20040;-56
2021/05/11 03:15:16;;;;;;;127.43;33.22;;;;;;;;;;4911912;29;20045;-57
2021/05/11 03:17:44;;;;;;;241.73;38.42;;;;;;;;;;4909230;29;20763;-54
2021/05/11 03:20:11;;;;;;;232.02;40.88;;;;;;;;;;4907414;29;20146;-54
2021/05/11 03:22:37;;;;;;;174.13;37.78;;;;;;;;;;4914067;29;20560;-56
2021/05/11 03:25:04;;;;;;;170.27;36.97;;;;;;;;;;4907023;29;20850;-52
2021/05/11 03:27:31;;;;;;;159.40;36.75;;;;;;;;;;4915574;29;20048;-56
2021/05/11 03:29:57;;;;;;;203.02;39.28;;;;;;;;;;4908722;29;20122;-57
2021/05/11 03:32:24;;;;;;;219.80;42.47;;;;;;;;;;4911353;29;20079;-57
2021/05/11 03:34:50;;;;;;;353.08;47.10;;;;;;;;;;4914654;29;20168;-55
2021/05/11 03:37:17;;;;;;;176.10;37.25;;;;;;;;;;4910876;29;20127;-55
2021/05/11 03:39:44;;;;;;;211.18;35.75;;;;;;;;;;4902027;29;20063;-57
2021/05/11 03:42:25;;;;;;;189.80;35.33;;;;;;;;;;4911399;29;20115;-56
2021/05/11 03:44:56;;;;;;;153.48;32.53;;;;;;;;;;4907118;29;20105;-54
2021/05/11 03:47:24;;;;;;;133.45;30.05;;;;;;;;;;4909442;29;20048;-55
2021/05/11 03:49:51;;;;;;;172.45;34.00;;;;;;;;;;4905067;29;20076;-56
2021/05/11 03:52:19;;;;;;;496.25;45.65;;;;;;;;;;4904648;29;20052;-57
2021/05/11 03:54:45;;;;;;;506.02;42.00;;;;;;;;;;4909144;29;20042;-56
2021/05/11 03:57:12;;;;;;;502.27;42.20;;;;;;;;;;4909571;29;20033;-56
2021/05/11 03:59:39;;;;;;;414.35;35.00;;;;;;;;;;4908713;29;20688;-52
2021/05/11 04:02:06;;;;;;;355.33;37.30;;;;;;;;;;4910279;29;20040;-57
2021/05/11 04:04:33;;;;;;;483.63;42.70;;;;;;;;;;4911443;29;20064;-55
2021/05/11 04:07:00;;;;;;;651.40;49.57;;;;;;;;;;4910809;29;20036;-56
2021/05/11 04:09:32;;;;;;;202.98;30.00;;;;;;;;;;4912078;29;20067;-57
2021/05/11 04:17:23;;;;;;;223.70;29.25;;;;;;;;;;4911567;29;20121;-56
2021/05/11 04:19:50;;;;;;;262.50;32.70;;;;;;;;;;4904945;29;20047;-54
2021/05/11 04:22:17;;;;;;;169.35;29.10;;;;;;;;;;4905500;29;20499;-56
2021/05/11 04:24:44;;;;;;;112.40;25.75;;;;;;;;;;4895037;29;20048;-56
2021/05/11 04:27:11;;;;;;;83.80;24.80;;;;;;;;;;4903804;29;20505;-55
2021/05/11 04:29:38;;;;;;;152.77;28.70;;;;;;;;;;4905233;29;20074;-57
2021/05/11 04:32:04;;;;;;;129.13;27.53;;;;;;;;;;4906144;29;20060;-57
2021/05/11 04:34:31;;;;;;;126.55;28.27;;;;;;;;;;4904618;29;20044;-56
2021/05/11 04:36:58;;;;;;;441.30;33.97;;;;;;;;;;4910291;29;20059;-56
2021/05/11 04:39:25;;;;;;;359.60;34.10;;;;;;;;;;4907996;29;20044;-55
2021/05/11 04:41:51;;;;;;;393.45;34.65;;;;;;;;;;4909321;29;20055;-56
2021/05/11 04:44:20;;;;;;;296.27;34.75;;;;;;;;;;4909415;29;20588;-54
2021/05/11 04:46:51;;;;;;;238.90;32.33;;;;;;;;;;4910843;29;20049;-50
2021/05/11 04:49:18;;;;;;;175.90;29.88;;;;;;;;;;4907150;29;20044;-55
2021/05/11 04:51:45;;;;;;;355.55;34.05;;;;;;;;;;4906692;29;20048;-55
2021/05/11 04:54:12;;;;;;;902.67;54.03;;;;;;;;;;4901217;29;20044;-57
2021/05/11 04:56:45;;;;;;;194.15;27.52;;;;;;;;;;4895367;29;20254;-55
2021/05/11 04:59:13;;;;;;;179.77;26.30;;;;;;;;;;4906109;29;20048;-57
2021/05/11 05:01:42;;;;;;;489.05;38.72;;;;;;;;;;4913011;29;20044;-56
2021/05/11 05:04:10;;;;;;;261.50;29.08;;;;;;;;;;4906918;29;20059;-56
2021/05/11 05:06:37;;;;;;;106.15;24.83;;;;;;;;;;4904712;29;20045;-56
2021/05/11 05:09:05;;;;;;;106.07;23.20;;;;;;;;;;4908220;29;20056;-55
2021/05/11 05:11:34;;;;;;;67.80;20.67;;;;;;;;;;4910165;29;20551;-56
2021/05/11 05:14:00;;;;;;;51.85;18.70;;;;;;;;;;4906328;29;20056;-57
2021/05/11 05:16:28;;;;;;;48.55;18.67;;;;;;;;;;4904208;29;20072;-55
2021/05/11 05:18:55;;;;;;;48.42;18.73;;;;;;;;;;4907660;29;20044;-56
2021/05/11 05:21:22;;;;;;;39.05;17.77;;;;;;;;;;4908259;29;20044;-54
2021/05/11 05:23:59;;;;;;;41.75;17.27;;;;;;;;;;4903955;29;20083;-56
2021/05/11 05:26:27;;;;;;;39.70;18.05;;;;;;;;;;4904893;29;20053;-56
2021/05/11 05:28:56;;;;;;;32.65;17.58;;;;;;;;;;4907852;29;20143;-55
2021/05/11 05:31:23;;;;;;;41.40;17.05;;;;;;;;;;4906179;29;20056;-55
2021/05/11 05:33:50;;;;;;;34.10;16.60;;;;;;;;;;4901369;29;20516;-56
2021/05/11 05:36:19;;;;;;;38.17;16.83;;;;;;;;;;4906815;29;20680;-56
2021/05/11 05:38:46;;;;;;;30.38;16.00;;;;;;;;;;4897461;29;20045;-51
2021/05/11 05:41:21;;;;;;;32.58;15.75;;;;;;;;;;4907125;29;20429;-56
2021/05/11 05:43:48;;;;;;;29.65;14.57;;;;;;;;;;4909545;29;20062;-54
2021/05/11 05:46:17;;;;;;;26.50;13.45;;;;;;;;;;4916135;29;20467;-56
2021/05/11 05:48:45;;;;;;;23.35;11.82;;;;;;;;;;4909581;29;20044;-55
2021/05/11 05:51:13;;;;;;;18.98;12.52;;;;;;;;;;4910457;29;20075;-56
2021/05/11 05:53:40;;;;;;;18.15;11.85;;;;;;;;;;4908337;29;20048;-57
2021/05/11 05:56:08;;;;;;;21.17;12.20;;;;;;;;;;4913157;29;20052;-54
2021/05/11 05:58:35;;;;;;;22.63;12.68;;;;;;;;;;4910284;29;20072;-56
2021/05/11 06:01:04;;;;;;;22.20;13.38;;;;;;;;;;4908711;29;20051;-54
2021/05/11 06:03:49;;;;;;;25.00;11.85;;;;;;;;;;4909829;29;20052;-57
2021/05/11 06:06:16;;;;;;;16.98;10.70;;;;;;;;;;4913548;29;20048;-55
2021/05/11 06:08:44;;;;;;;25.00;12.40;;;;;;;;;;4905729;29;20078;-57
2021/05/11 06:11:28;;;;;;;16.13;10.55;;;;;;;;;;4910579;29;20059;-55
2021/05/11 06:19:12;;;;;;;22.00;12.35;;;;;;;;;;4905225;29;20109;-53
2021/05/11 06:21:39;;;;;;;23.98;12.73;;;;;;;;;;4909127;29;20127;-56
2021/05/11 06:24:06;;;;;;;24.38;12.27;;;;;;;;;;4909109;29;20052;-56
2021/05/11 06:26:33;;;;;;;23.65;12.18;;;;;;;;;;4907502;29;20044;-57
2021/05/11 06:29:01;;;;;;;30.27;13.43;;;;;;;;;;4904498;29;20105;-56
2021/05/11 06:31:28;;;;;;;24.10;13.23;;;;;;;;;;4908543;29;20060;-55
2021/05/11 06:33:55;;;;;;;24.60;13.07;;;;;;;;;;4914420;29;20056;-56
2021/05/11 06:36:22;;;;;;;17.38;11.43;;;;;;;;;;4913970;29;20089;-56
2021/05/11 06:38:56;;;;;;;19.30;11.32;;;;;;;;;;4906723;29;20106;-56
2021/05/11 06:41:23;;;;;;;15.80;10.88;;;;;;;;;;4899292;29;20449;-56
2021/05/11 06:44:03;;;;;;;17.40;11.73;;;;;;;;;;4904766;29;20052;-55
2021/05/11 06:54:16;;;;;;;31.15;12.50;;;;;;;;;;4911224;29;20055;-57
2021/05/11 06:56:46;;;;;;;72.63;16.80;;;;;;;;;;4904955;29;20049;-54
2021/05/11 06:59:14;;;;;;;39.72;13.95;;;;;;;;;;4908460;29;20111;-55
2021/05/11 07:01:40;;;;;;;33.05;15.07;;;;;;;;;;4905952;29;20049;-56
2021/05/11 07:04:07;;;;;;;26.48;14.13;;;;;;;;;;4909541;29;20119;-56
2021/05/11 07:06:35;;;;;;;15.87;10.87;;;;;;;;;;4913549;29;20131;-57
2021/05/11 07:09:07;;;;;;;25.77;12.90;;;;;;;;;;4904481;29;20048;-57
2021/05/11 07:14:01;;;;;;;34.47;15.20;;;;;;;;;;4913578;29;20058;-56
2021/05/11 07:16:29;;;;;;;49.55;17.67;;;;;;;;;;4906388;29;20054;-54
2021/05/11 07:18:56;;;;;;;54.85;16.55;;;;;;;;;;4893612;29;20044;-57
2021/05/11 07:21:23;;;;;;;50.90;16.48;;;;;;;;;;4905543;29;20053;-57
2021/05/11 07:23:50;;;;;;;44.60;15.32;;;;;;;;;;4910836;29;20096;-56
2021/05/11 07:31:16;;;;;;;19.20;12.18;;;;;;;;;;4906758;29;20055;-56
2021/05/11 07:36:11;;;;;;;20.75;14.02;;;;;;;;;;4910023;29;20115;-57
2021/05/11 07:38:38;;;;;;;;;;;;;;;;;;4911057;29;20040;-57
2021/05/11 07:41:06;;;;;;;18.08;10.60;;;;;;;;;;4909107;29;19923;-55
2021/05/11 07:43:36;;;;;;;17.50;9.60;;;;;;;;;;4901084;29;20044;-57
2021/05/11 08:05:21;;;;;;;10.32;6.43;;;;;;;;;;4910803;29;20044;-56
2021/05/11 08:16:03;;;;;;;12.02;5.93;;;;;;;;;;4912193;29;20080;-56
2021/05/11 08:29:31;;;;;;;10.07;4.68;;;;;;;;;;4908541;29;20044;-56
2021/05/11 08:31:58;;;;;;;10.63;4.97;;;;;;;;;;4905030;29;20048;-56
2021/05/11 08:34:26;;;;;;;14.55;4.65;;;;;;;;;;4902754;29;20059;-56
2021/05/11 08:36:52;;;;;;;16.40;4.80;;;;;;;;;;4911214;29;20139;-55
2021/05/11 08:39:21;;;;;;;17.75;5.15;;;;;;;;;;4904074;29;20044;-56
2021/05/11 08:41:48;;;;;;;12.93;4.85;;;;;;;;;;4908796;29;20628;-52
2021/05/11 08:44:15;;;;;;;16.83;5.22;;;;;;;;;;4902216;29;20096;-55
2021/05/11 08:46:43;;;;;;;16.55;4.95;;;;;;;;;;4907009;29;20158;-57
2021/05/11 08:49:13;;;;;;;16.67;4.35;;;;;;;;;;4909194;29;20062;-57
2021/05/11 08:54:32;;;;;;;10.25;4.43;;;;;;;;;;4902113;29;20061;-55
2021/05/11 09:08:36;;;;;;;15.00;4.20;;;;;;;;;;4909006;29;20037;-56
2021/05/11 09:14:18;;;;;;;10.52;4.00;;;;;;;;;;4905293;29;20052;-57
2021/05/11 09:14:51;;;;;;;12.25;4.75;;;;;;;;;;4906419;29;20051;-57
2021/05/11 09:25:10;;;;;;;11.88;4.90;;;;;;;;;;4911161;29;20512;-57
2021/05/11 09:27:55;;;;;;;15.45;4.95;;;;;;;;;;4911387;29;20048;-56
2021/05/11 10:44:27;;;;;;;11.90;4.57;;;;;;;;;;4909407;29;20050;-57
2021/05/11 10:49:28;;;;;;;18.58;5.00;;;;;;;;;;4912430;29;20043;-57
2021/05/11 10:52:12;;;;;;;17.38;5.43;;;;;;;;;;4908482;29;20108;-57
2021/05/11 10:55:04;;;;;;;15.27;4.45;;;;;;;;;;4907962;29;20044;-56
2021/05/11 10:57:45;;;;;;;22.95;5.55;;;;;;;;;;4905595;29;20040;-56
2021/05/11 11:00:43;;;;;;;13.70;4.25;;;;;;;;;;4908960;29;20040;-56
2021/05/11 11:03:15;;;;;;;12.25;3.90;;;;;;;;;;4907840;29;20052;-56
2021/05/11 11:05:44;;;;;;;11.60;3.88;;;;;;;;;;4912541;29;20464;-56
2021/05/11 11:08:29;;;;;;;12.77;3.50;;;;;;;;;;4902399;29;20051;-56
2021/05/11 11:11:17;;;;;;;9.15;3.42;;;;;;;;;;4906658;29;20547;-57
2021/05/11 11:13:45;;;;;;;18.17;3.85;;;;;;;;;;4907804;29;20143;-56
2021/05/11 11:16:12;;;;;;;15.30;4.10;;;;;;;;;;4903163;29;20039;-56
2021/05/11 11:18:39;;;;;;;9.13;3.63;;;;;;;;;;4909527;29;20044;-57
2021/05/11 11:23:49;;;;;;;10.27;3.97;;;;;;;;;;4917024;29;20395;-57
2021/05/11 11:26:23;;;;;;;9.88;3.50;;;;;;;;;;4907702;29;20052;-56
2021/05/11 11:29:05;;;;;;;10.55;3.08;;;;;;;;;;4907311;29;20416;-56
2021/05/11 11:31:33;;;;;;;10.00;3.20;;;;;;;;;;4908515;29;20119;-55
2021/05/11 11:34:19;;;;;;;12.48;3.65;;;;;;;;;;4906621;29;20044;-56
2021/05/11 11:36:47;;;;;;;9.05;3.10;;;;;;;;;;4911621;29;20051;-57
2021/05/11 11:39:16;;;;;;;10.60;3.58;;;;;;;;;;4904710;29;20044;-54
2021/05/11 11:41:43;;;;;;;;;;;;;;;;;;4916714;29;20056;-56
2021/05/11 11:44:13;;;;;;;14.07;3.90;;;;;;;;;;4904531;29;19927;-56
2021/05/11 11:46:40;;;;;;;10.75;3.40;;;;;;;;;;4910738;29;20076;-57
2021/05/11 11:49:12;;;;;;;11.00;3.45;;;;;;;;;;4908587;29;20601;-56
2021/05/11 11:51:39;;;;;;;11.93;3.58;;;;;;;;;;4910364;29;20069;-57
2021/05/11 11:54:14;;;;;;;10.40;3.45;;;;;;;;;;4909158;29;20044;-57
2021/05/11 11:59:28;;;;;;;13.95;3.83;;;;;;;;;;4881615;29;20185;-57
2021/05/11 12:01:55;;;;;;;13.93;4.13;;;;;;;;;;4906286;29;20063;-56
2021/05/11 12:04:24;;;;;;;12.75;3.78;;;;;;;;;;4909387;29;20048;-56
2021/05/11 12:06:52;;;;;;;9.48;2.78;;;;;;;;;;4907355;29;20135;-55
2021/05/11 12:09:20;;;;;;;8.77;3.47;;;;;;;;;;4909808;29;20048;-57
2021/05/11 12:11:46;;;;;;;13.82;3.40;;;;;;;;;;4909180;29;20036;-56
2021/05/11 12:14:14;;;;;;;;;;;;;;;;;;4904645;29;20079;-56
2021/05/11 12:16:45;;;;;;;16.23;3.47;;;;;;;;;;4905390;29;19935;-54
2021/05/11 12:19:22;;;;;;;15.68;3.50;;;;;;;;;;4906575;29;20064;-54
2021/05/11 12:21:49;;;;;;;17.80;3.80;;;;;;;;;;4910362;29;20094;-57
2021/05/11 12:24:18;;;;;;;12.07;3.78;;;;;;;;;;4907896;29;20116;-56
2021/05/11 12:26:46;;;;;;;12.60;4.22;;;;;;;;;;4909348;29;20052;-56
2021/05/11 12:29:34;;;;;;;10.40;2.88;;;;;;;;;;4909558;29;20239;-55
2021/05/11 12:32:01;;;;;;;10.85;3.60;;;;;;;;;;4904818;29;20489;-56
2021/05/11 12:34:28;;;;;;;8.48;2.72;;;;;;;;;;4908623;29;20055;-57
2021/05/11 12:37:00;;;;;;;9.32;3.13;;;;;;;;;;4908162;29;20056;-56
2021/05/11 12:39:38;;;;;;;12.27;3.38;;;;;;;;;;4907640;29;20450;-56
2021/05/11 12:42:12;;;;;;;8.00;3.10;;;;;;;;;;4909184;29;20446;-57
2021/05/11 12:44:40;;;;;;;9.55;2.85;;;;;;;;;;4901078;29;20056;-55
2021/05/11 12:47:09;;;;;;;6.70;2.92;;;;;;;;;;4909864;29;20045;-56
2021/05/11 12:49:36;;;;;;;9.60;2.85;;;;;;;;;;4903918;29;20123;-58
2021/05/11 12:52:05;;;;;;;7.38;2.75;;;;;;;;;;4906523;29;20051;-54
2021/05/11 12:54:42;;;;;;;6.07;2.30;;;;;;;;;;4907200;29;20044;-57
2021/05/11 12:57:15;;;;;;;7.10;2.58;;;;;;;;;;4910226;29;20048;-57
2021/05/11 13:00:38;;;;;;;5.78;2.17;;;;;;;;;;4910179;29;20397;-57
2021/05/11 13:03:15;;;;;;;9.43;2.40;;;;;;;;;;4897695;29;20068;-57
2021/05/11 13:16:55;;;;;;;4.70;2.03;;;;;;;;;;4904972;29;20368;-57
2021/05/11 13:27:52;;;;;;;7.32;2.03;;;;;;;;;;4904856;29;20565;-57
2021/05/11 13:35:35;;;;;;;6.75;2.25;;;;;;;;;;4906660;29;20051;-57
2021/05/11 13:38:02;;;;;;;4.70;1.90;;;;;;;;;;4905415;29;20052;-57
2021/05/11 13:40:32;;;;;;;5.60;1.95;;;;;;;;;;4905080;29;20108;-57
2021/05/11 13:42:59;;;;;;;6.25;2.25;;;;;;;;;;4911754;29;20044;-57
2021/05/11 13:45:26;;;;;;;7.33;2.47;;;;;;;;;;4909926;29;20115;-57
2021/05/11 13:48:01;;;;;;;7.03;2.22;;;;;;;;;;4907047;29;20100;-53
2021/05/11 13:53:02;;;;;;;7.75;2.50;;;;;;;;;;4904903;29;20360;-57
2021/05/11 13:55:35;;;;;;;8.73;2.92;;;;;;;;;;4902395;29;20123;-56
2021/05/11 14:03:33;;;;;;;7.80;2.80;;;;;;;;;;4906878;29;20059;-54
2021/05/11 14:06:00;;;;;;;5.40;2.50;;;;;;;;;;4911945;29;20083;-56
2021/05/11 14:08:27;;;;;;;6.93;2.63;;;;;;;;;;4909803;29;20147;-57
2021/05/11 14:10:54;;;;;;;5.07;3.03;;;;;;;;;;4915243;29;20040;-57
2021/05/11 14:13:23;;;;;;;8.85;3.72;;;;;;;;;;4914698;29;20049;-57
2021/05/11 14:15:49;;;;;;;10.23;3.22;;;;;;;;;;4910232;29;20100;-56
2021/05/11 14:18:17;;;;;;;9.98;3.10;;;;;;;;;;4908764;29;20104;-54
2021/05/11 14:20:44;;;;;;;12.13;2.95;;;;;;;;;;4910228;29;20051;-56
2021/05/11 14:23:11;;;;;;;12.37;3.00;;;;;;;;;;4912546;29;20048;-56
2021/05/11 14:25:37;;;;;;;10.97;3.00;;;;;;;;;;4911870;29;20291;-57
2021/05/11 14:28:09;;;;;;;7.93;2.60;;;;;;;;;;4915313;29;20280;-56
2021/05/11 14:30:36;;;;;;;6.60;2.15;;;;;;;;;;4908926;29;20048;-57
2021/05/11 14:33:02;;;;;;;6.10;2.37;;;;;;;;;;4912097;29;20050;-57
2021/05/11 14:35:29;;;;;;;10.10;2.55;;;;;;;;;;4910440;29;20052;-53
2021/05/11 14:37:56;;;;;;;5.30;2.30;;;;;;;;;;4087839;28;10000954;-57
2021/05/11 14:40:23;;;;;;;5.85;2.10;;;;;;;;;;4945022;28;20045;-57
2021/05/11 14:42:51;;;;;;;5.47;2.23;;;;;;;;;;4948649;28;20098;-57
2021/05/11 14:45:17;;;;;;;8.93;2.88;;;;;;;;;;4946390;28;20295;-57
2021/05/11 14:47:46;;;;;;;8.15;2.80;;;;;;;;;;4949497;28;20047;-57
2021/05/11 14:50:16;;;;;;;9.50;2.50;;;;;;;;;;4943726;28;20047;-57
2021/05/11 14:52:43;;;;;;;8.15;2.60;;;;;;;;;;4947310;28;20054;-57
2021/05/11 14:55:13;;;;;;;8.68;2.70;;;;;;;;;;4922739;29;20452;-58
2021/05/11 14:57:40;;;;;;;5.72;3.15;;;;;;;;;;4947433;28;20057;-57
2021/05/11 15:00:07;;;;;;;12.07;2.93;;;;;;;;;;4943415;28;20706;-57
2021/05/11 15:02:35;;;;;;;8.05;2.97;;;;;;;;;;4941742;28;20047;-57
2021/05/11 15:05:03;;;;;;;9.57;2.33;;;;;;;;;;4950097;28;20134;-57
2021/05/11 15:07:30;;;;;;;;;;;;;;;;;;4947835;28;20039;-57
2021/05/11 15:09:57;;;;;;;5.88;2.20;;;;;;;;;;4950705;28;19929;-57
2021/05/11 15:12:25;;;;;;;6.10;2.00;;;;;;;;;;4947220;28;20426;-57
2021/05/11 15:14:51;;;;;;;11.20;2.35;;;;;;;;;;4951901;28;20046;-56
2021/05/11 15:19:48;;;;;;;13.75;4.13;;;;;;;;;;4944655;28;20423;-57
2021/05/11 15:22:15;;;;;;;12.77;4.10;;;;;;;;;;4950458;28;20079;-56
2021/05/11 15:24:42;;;;;;;9.63;3.08;;;;;;;;;;4946713;28;20074;-56
2021/05/11 15:27:09;;;;;;;9.52;3.53;;;;;;;;;;4943571;28;20055;-56
2021/05/11 15:29:41;;;;;;;14.25;4.25;;;;;;;;;;4949328;28;20512;-57
2021/05/11 15:32:27;;;;;;;20.70;5.80;;;;;;;;;;4927906;29;20059;-55
2021/05/11 15:34:54;;;;;;;6.30;3.80;;;;;;;;;;4920479;29;20036;-57
2021/05/11 15:37:20;;;;;;;8.65;3.85;;;;;;;;;;4927058;29;20079;-56
2021/05/11 15:39:47;;;;;;;9.55;3.30;;;;;;;;;;4925818;29;20051;-57
2021/05/11 15:42:14;;;;;;;7.90;3.10;;;;;;;;;;4925087;29;20047;-57
2021/05/11 15:44:41;;;;;;;13.45;3.75;;;;;;;;;;4928416;29;20091;-56
2021/05/11 15:47:09;;;;;;;10.38;3.03;;;;;;;;;;4923596;29;20055;-56
2021/05/11 15:49:36;;;;;;;7.68;3.25;;;;;;;;;;4928362;29;20043;-57
2021/05/11 15:52:04;;;;;;;10.83;3.07;;;;;;;;;;4923861;29;20047;-56
2021/05/11 15:54:30;;;;;;;8.15;3.03;;;;;;;;;;4927252;29;20040;-54
2021/05/11 15:56:57;;;;;;;8.32;3.25;;;;;;;;;;4913172;29;20052;-55
2021/05/11 15:59:25;;;;;;;11.07;3.10;;;;;;;;;;4922150;29;20070;-57
2021/05/11 16:01:51;;;;;;;7.00;2.97;;;;;;;;;;4930174;29;20055;-57
2021/05/11 16:04:18;;;;;;;6.68;2.95;;;;;;;;;;4925852;29;20135;-56
2021/05/11 16:06:45;;;;;;;8.35;3.00;;;;;;;;;;4921795;29;20036;-55
2021/05/11 16:09:13;;;;;;;5.68;2.70;;;;;;;;;;4928066;29;20266;-55
2021/05/11 16:12:00;;;;;;;5.80;2.78;;;;;;;;;;4925229;29;20126;-56
2021/05/11 16:14:26;;;;;;;7.53;2.95;;;;;;;;;;4927782;29;20043;-56
2021/05/11 16:16:53;;;;;;;7.57;2.88;;;;;;;;;;4926915;29;20632;-54
2021/05/11 16:19:20;;;;;;;8.45;3.47;;;;;;;;;;4922639;29;20039;-56
2021/05/11 16:21:47;;;;;;;6.90;2.63;;;;;;;;;;4926723;29;20058;-56
2021/05/11 16:24:13;;;;;;;7.40;2.83;;;;;;;;;;4927874;29;20074;-55
2021/05/11 16:26:41;;;;;;;11.82;2.90;;;;;;;;;;4925009;29;20052;-54
2021/05/11 16:29:07;;;;;;;9.13;3.15;;;;;;;;;;4926220;29;20484;-56
2021/05/11 16:31:34;;;;;;;8.85;2.92;;;;;;;;;;4924905;29;20056;-56
2021/05/11 16:34:03;;;;;;;8.90;2.40;;;;;;;;;;4924384;29;20050;-54
2021/05/11 16:36:31;;;;;;;9.27;2.80;;;;;;;;;;4929452;29;20505;-56
2021/05/11 16:38:57;;;;;;;8.18;2.47;;;;;;;;;;4928602;29;20058;-54
2021/05/11 16:41:24;;;;;;;8.88;2.35;;;;;;;;;;4925532;29;20048;-57
2021/05/11 16:43:53;;;;;;;14.57;3.17;;;;;;;;;;4923108;29;20049;-54
2021/05/11 16:46:19;;;;;;;4.43;2.35;;;;;;;;;;4924795;29;20564;-55
2021/05/11 16:48:46;;;;;;;3.60;1.98;;;;;;;;;;4924460;29;20721;-57
2021/05/11 16:51:13;;;;;;;6.63;2.30;;;;;;;;;;4926214;29;20046;-57
2021/05/11 16:53:40;;;;;;;5.53;2.20;;;;;;;;;;4922714;29;20453;-57
2021/05/11 16:56:06;;;;;;;7.75;1.95;;;;;;;;;;4908854;29;20109;-57
2021/05/11 16:58:33;;;;;;;5.32;2.03;;;;;;;;;;4923278;29;20048;-54
2021/05/11 17:01:00;;;;;;;8.97;2.27;;;;;;;;;;4924309;29;20124;-57
2021/05/11 17:03:27;;;;;;;4.32;2.13;;;;;;;;;;4924211;28;20048;-55
2021/05/11 17:05:54;;;;;;;3.85;2.17;;;;;;;;;;4923856;29;20052;-56
2021/05/11 17:08:20;;;;;;;8.25;2.63;;;;;;;;;;4925544;29;20068;-56
2021/05/11 17:10:47;;;;;;;4.88;2.38;;;;;;;;;;4925163;29;20059;-55
2021/05/11 17:13:14;;;;;;;7.28;2.42;;;;;;;;;;4925204;29;20279;-54
2021/05/11 17:15:41;;;;;;;9.23;2.80;;;;;;;;;;4926535;29;20055;-53
2021/05/11 17:18:08;;;;;;;6.80;2.70;;;;;;;;;;4924899;29;20483;-55
2021/05/11 17:20:35;;;;;;;11.00;2.90;;;;;;;;;;4920692;29;20048;-54
2021/05/11 17:23:05;;;;;;;4.57;2.53;;;;;;;;;;4926883;29;20379;-55
2021/05/11 17:25:31;;;;;;;6.20;2.50;;;;;;;;;;4925465;29;20071;-53
2021/05/11 17:28:00;;;;;;;10.05;2.92;;;;;;;;;;4921557;29;20048;-53
2021/05/11 17:30:29;;;;;;;9.00;3.30;;;;;;;;;;4924265;29;20838;-51
2021/05/11 17:32:56;;;;;;;8.07;2.92;;;;;;;;;;4927162;29;20058;-55
2021/05/11 17:35:23;;;;;;;8.80;3.15;;;;;;;;;;4919857;29;20078;-56
2021/05/11 17:37:50;;;;;;;7.95;3.05;;;;;;;;;;4918821;29;20142;-57
2021/05/11 17:40:18;;;;;;;10.07;3.13;;;;;;;;;;4931385;29;20104;-56
2021/05/11 17:42:44;;;;;;;6.63;2.70;;;;;;;;;;4928042;29;20299;-55
2021/05/11 17:45:14;;;;;;;7.22;3.22;;;;;;;;;;4910182;29;20389;-56
2021/05/11 17:47:51;;;;;;;10.18;3.20;;;;;;;;;;4933383;29;20047;-55
2021/05/11 17:50:19;;;;;;;10.15;3.20;;;;;;;;;;4875313;29;20051;-53
2021/05/11 17:52:45;;;;;;;;;;;;;;;;;;4926606;29;20044;-53
2021/05/11 17:55:12;;;;;;;9.20;3.15;;;;;;;;;;4931982;29;19971;-56
2021/05/11 17:57:39;;;;;;;11.53;3.47;;;;;;;;;;4927262;29;20423;-53
2021/05/11 18:00:06;;;;;;;11.48;4.40;;;;;;;;;;4927361;29;20307;-54
2021/05/11 18:02:33;;;;;;;8.30;3.25;;;;;;;;;;4923651;29;20048;-56
2021/05/11 18:05:01;;;;;;;13.13;4.15;;;;;;;;;;4932562;29;20050;-56
2021/05/11 18:07:27;;;;;;;11.27;4.07;;;;;;;;;;4930536;29;20058;-56
2021/05/11 18:09:54;;;;;;;11.00;3.28;;;;;;;;;;4928975;29;20043;-52
2021/05/11 18:12:20;;;;;;;10.97;3.97;;;;;;;;;;4926572;29;20044;-54
2021/05/11 18:14:48;;;;;;;12.07;4.13;;;;;;;;;;4921861;29;20051;-54
2021/05/11 18:17:15;;;;;;;11.35;4.68;;;;;;;;;;4928800;29;20047;-55
2021/05/11 18:19:43;;;;;;;13.32;4.85;;;;;;;;;;4930575;29;20753;-51
2021/05/11 18:22:09;;;;;;;13.10;4.97;;;;;;;;;;4932039;29;20114;-55
2021/05/11 18:24:36;;;;;;;12.13;5.65;;;;;;;;;;4922381;29;20037;-56
2021/05/11 18:27:04;;;;;;;9.23;5.07;;;;;;;;;;4928700;29;20071;-53
2021/05/11 18:29:32;;;;;;;10.30;4.57;;;;;;;;;;4929156;29;20062;-54
2021/05/11 18:31:58;;;;;;;8.90;4.72;;;;;;;;;;4928814;28;20134;-52
2021/05/11 18:34:25;;;;;;;8.40;4.90;;;;;;;;;;4933902;29;20126;-53
2021/05/11 18:37:05;;;;;;;16.13;5.50;;;;;;;;;;4929881;29;20055;-53
2021/05/11 18:39:34;;;;;;;20.30;5.70;;;;;;;;;;4929543;29;20099;-54
2021/05/11 18:42:01;;;;;;;13.63;5.72;;;;;;;;;;4925492;29;20166;-51
2021/05/11 18:44:28;;;;;;;16.15;6.35;;;;;;;;;;4928142;29;20055;-51
2021/05/11 18:46:55;;;;;;;12.03;5.70;;;;;;;;;;4929127;29;20043;-49
2021/05/11 18:49:22;;;;;;;12.40;6.13;;;;;;;;;;4924995;29;20052;-49
2021/05/11 18:51:48;;;;;;;13.47;6.80;;;;;;;;;;4930442;29;20108;-52
2021/05/11 18:54:16;;;;;;;14.18;7.10;;;;;;;;;;4927138;29;20043;-50
2021/05/11 18:56:48;;;;;;;20.77;7.03;;;;;;;;;;4923481;29;20051;-49
2021/05/11 18:59:14;;;;;;;17.05;7.47;;;;;;;;;;4924015;29;20048;-55